Time;durP1;ratioP1;P1;durP2;ratioP2;P2;SDS_P1;SDS_P2;PMS_P1;PMS_P2;Temp;Humidity;BMP_temperature;BMP_pressure;BME280_temperature;BME280_humidity;BME280_pressure;Samples;Min_cycle;Max_cycle;Signal;HPM_P1;HPM_P2
2023/03/23 00:00:36;;;;;;;;;;;17.30;65.70;;;;;;5037355;28;1977;-70
2023/03/23 00:03:01;;;;;;;;;;;17.30;65.70;;;;;;5037760;28;1355;-72
2023/03/23 00:05:28;;;;;;;;;;;17.30;65.70;;;;;;5038265;28;871;-73
2023/03/23 00:07:55;;;;;;;;;;;17.30;65.70;;;;;;5036501;28;834;-73
2023/03/23 00:10:20;;;;;;;;;;;17.30;65.70;;;;;;5042595;28;891;-72
2023/03/23 00:12:49;;;;;;;;;;;17.30;65.70;;;;;;5040059;28;887;-72
2023/03/23 00:15:16;;;;;;;;;;;17.30;65.80;;;;;;5041350;28;1295;-72
2023/03/23 00:17:43;;;;;;;;;;;17.30;65.80;;;;;;5039429;28;855;-73
2023/03/23 00:20:12;;;;;;;;;;;17.30;65.80;;;;;;5039619;28;1906;-73
2023/03/23 00:22:40;;;;;;;;;;;17.30;65.80;;;;;;5047124;28;864;-72
2023/03/23 00:25:08;;;;;;;;;;;17.30;65.80;;;;;;5043645;28;1244;-72
2023/03/23 00:27:34;;;;;;;;;;;17.30;65.80;;;;;;5040827;28;832;-71
2023/03/23 00:29:59;;;;;;;;;;;17.30;65.80;;;;;;5041910;28;815;-72
2023/03/23 00:32:28;;;;;;;;;;;17.30;65.80;;;;;;5041094;28;793;-72
2023/03/23 00:34:54;;;;;;;;;;;17.30;65.80;;;;;;5040277;28;1202;-72
2023/03/23 00:37:20;;;;;;;;;;;17.30;65.80;;;;;;5049502;28;1403;-72
2023/03/23 00:39:46;;;;;;;;;;;17.30;65.80;;;;;;5042293;28;1020;-72
2023/03/23 00:42:13;;;;;;;;;;;17.30;65.90;;;;;;5044265;28;1982;-72
2023/03/23 00:44:39;;;;;;;;;;;17.30;65.80;;;;;;5042067;28;1385;-72
2023/03/23 00:47:05;;;;;;;;;;;17.30;65.90;;;;;;5042418;28;914;-71
2023/03/23 00:49:34;;;;;;;;;;;17.30;65.90;;;;;;5041258;28;726;-71
2023/03/23 00:52:00;;;;;;;;;;;17.30;65.90;;;;;;5040171;28;848;-71
2023/03/23 00:54:25;;;;;;;;;;;17.30;65.90;;;;;;5038813;28;1331;-70
2023/03/23 00:56:50;;;;;;;;;;;17.30;65.90;;;;;;5041526;28;1030;-70
2023/03/23 00:59:16;;;;;;;;;;;17.30;65.90;;;;;;5041395;28;1173;-70
2023/03/23 01:01:42;;;;;;;;;;;17.30;65.90;;;;;;5042469;28;1934;-70
2023/03/23 01:04:07;;;;;;;;;;;17.30;65.90;;;;;;5041231;28;1327;-70
2023/03/23 01:06:35;;;;;;;;;;;17.30;65.90;;;;;;5042361;28;974;-70
2023/03/23 01:09:00;;;;;;;;;;;17.30;66.00;;;;;;5022501;28;1463;-70
2023/03/23 01:11:26;;;;;;;;;;;17.30;66.00;;;;;;5039879;28;942;-70
2023/03/23 01:13:51;;;;;;;;;;;17.20;66.00;;;;;;5042830;28;1268;-70
2023/03/23 01:16:17;;;;;;;;;;;17.30;66.00;;;;;;5042610;28;907;-73
2023/03/23 01:18:42;;;;;;;;;;;17.30;66.00;;;;;;5042662;28;924;-73
2023/03/23 01:21:12;;;;;;;;;;;17.30;66.00;;;;;;5041164;28;1914;-73
2023/03/23 01:23:37;;;;;;;;;;;17.20;66.00;;;;;;5039210;28;1334;-73
2023/03/23 01:26:07;;;;;;;;;;;17.30;66.00;;;;;;5042951;28;1453;-73
2023/03/23 01:28:33;;;;;;;;;;;17.20;66.00;;;;;;5037957;28;891;-73
2023/03/23 01:31:02;;;;;;;;;;;17.30;66.00;;;;;;5040911;28;1011;-73
2023/03/23 01:33:28;;;;;;;;;;;17.30;66.00;;;;;;5043265;28;1239;-73
2023/03/23 01:35:53;;;;;;;;;;;17.20;66.00;;;;;;5037706;28;875;-73
2023/03/23 01:38:19;;;;;;;;;;;17.20;66.00;;;;;;5042422;28;1096;-70
2023/03/23 01:40:44;;;;;;;;;;;17.30;66.00;;;;;;5036953;28;1981;-70
2023/03/23 01:43:11;;;;;;;;;;;17.20;66.00;;;;;;5041941;28;1320;-70
2023/03/23 01:45:37;;;;;;;;;;;17.20;66.00;;;;;;5041864;28;1077;-70
2023/03/23 01:48:02;;;;;;;;;;;17.20;66.00;;;;;;5042828;28;1590;-70
2023/03/23 01:50:28;;;;;;;;;;;17.30;66.10;;;;;;5040414;28;1656;-70
2023/03/23 01:52:54;;;;;;;;;;;17.20;66.00;;;;;;5040349;28;812;-70
2023/03/23 01:55:20;;;;;;;;;;;17.20;66.10;;;;;;5041454;28;1194;-70
2023/03/23 01:57:45;;;;;;;;;;;17.20;66.10;;;;;;5041473;28;880;-70
2023/03/23 02:00:15;;;;;;;;;;;17.20;66.10;;;;;;5039209;28;1902;-70
2023/03/23 02:02:44;;;;;;;;;;;17.20;66.10;;;;;;5073057;28;1194;-70
2023/03/23 02:05:39;;;;;;;;;;;17.20;66.10;;;;;;5039747;28;1290;-69
2023/03/23 02:08:05;;;;;;;;;;;17.20;66.10;;;;;;5036039;28;1445;-69
2023/03/23 02:10:31;;;;;;;;;;;17.20;66.10;;;;;;5039198;28;847;-69
2023/03/23 02:12:57;;;;;;;;;;;17.20;66.10;;;;;;5039262;28;848;-69
2023/03/23 02:15:24;;;;;;;;;;;17.20;66.10;;;;;;5038710;28;1299;-69
2023/03/23 02:17:52;;;;;;;;;;;17.20;66.10;;;;;;5042285;28;899;-69
2023/03/23 02:20:17;;;;;;;;;;;17.20;66.10;;;;;;5041159;28;1910;-69
2023/03/23 02:23:02;;;;;;;;;;;17.20;66.10;;;;;;5039389;28;827;-69
2023/03/23 02:25:45;;;;;;;;;;;17.20;66.10;;;;;;5039697;28;880;-70
2023/03/23 02:28:20;;;;;;;;;;;17.20;66.20;;;;;;5040320;28;899;-71
2023/03/23 02:30:45;;;;;;;;;;;17.20;66.10;;;;;;5039830;28;797;-70
2023/03/23 02:33:21;;;;;;;;;;;17.20;66.20;;;;;;5041964;28;1268;-71
2023/03/23 02:35:50;;;;;;;;;;;17.20;66.10;;;;;;5041019;28;883;-71
2023/03/23 02:38:17;;;;;;;;;;;17.20;66.10;;;;;;5042078;28;1100;-70
2023/03/23 02:40:44;;;;;;;;;;;17.20;66.20;;;;;;5034585;28;1968;-70
2023/03/23 02:43:10;;;;;;;;;;;17.20;66.20;;;;;;5035503;28;1280;-70
2023/03/23 02:45:36;;;;;;;;;;;17.20;66.20;;;;;;5038450;28;1325;-71
2023/03/23 02:48:01;;;;;;;;;;;17.20;66.20;;;;;;5040907;28;954;-72
2023/03/23 02:50:27;;;;;;;;;;;17.20;66.20;;;;;;5040665;28;911;-72
2023/03/23 02:52:52;;;;;;;;;;;17.20;66.20;;;;;;5040827;28;1065;-72
2023/03/23 02:55:18;;;;;;;;;;;17.20;66.20;;;;;;5035787;28;1341;-70
2023/03/23 02:57:45;;;;;;;;;;;17.20;66.20;;;;;;5037983;28;891;-70
2023/03/23 03:00:10;;;;;;;;;;;17.20;66.20;;;;;;5037395;28;1911;-71
2023/03/23 03:02:47;;;;;;;;;;;17.20;66.20;;;;;;5037553;28;887;-71
2023/03/23 03:05:12;;;;;;;;;;;17.20;66.20;;;;;;5036072;28;1811;-71
2023/03/23 03:07:54;;;;;;;;;;;17.20;66.20;;;;;;5039192;28;994;-71
2023/03/23 03:10:23;;;;;;;;;;;17.20;66.20;;;;;;5039321;28;1031;-71
2023/03/23 03:12:56;;;;;;;;;;;17.20;66.20;;;;;;5044403;28;848;-71
2023/03/23 03:15:26;;;;;;;;;;;17.20;66.20;;;;;;5045335;28;1413;-70
2023/03/23 03:17:54;;;;;;;;;;;17.20;66.20;;;;;;5039926;28;806;-70
2023/03/23 03:20:21;;;;;;;;;;;17.20;66.20;;;;;;5044719;28;1906;-72
2023/03/23 03:22:47;;;;;;;;;;;17.20;66.30;;;;;;5037500;28;864;-71
2023/03/23 03:25:13;;;;;;;;;;;17.20;66.30;;;;;;5039396;28;1287;-71
2023/03/23 03:27:40;;;;;;;;;;;17.20;66.20;;;;;;5043322;28;852;-71
2023/03/23 03:30:08;;;;;;;;;;;17.20;66.30;;;;;;5037749;28;853;-72
2023/03/23 03:32:38;;;;;;;;;;;17.20;66.30;;;;;;5045524;28;848;-73
2023/03/23 03:35:05;;;;;;;;;;;17.20;66.30;;;;;;5034136;28;1338;-73
2023/03/23 03:37:36;;;;;;;;;;;17.20;66.30;;;;;;5035330;28;1376;-71
2023/03/23 03:40:04;;;;;;;;;;;17.20;66.30;;;;;;5039556;28;919;-69
2023/03/23 03:42:30;;;;;;;;;;;17.20;66.30;;;;;;5039541;28;1906;-69
2023/03/23 03:44:55;;;;;;;;;;;17.20;66.30;;;;;;5036782;28;1272;-69
2023/03/23 03:47:20;;;;;;;;;;;17.20;66.30;;;;;;5039266;28;935;-70
2023/03/23 03:49:46;;;;;;;;;;;17.20;66.30;;;;;;5036827;28;903;-71
2023/03/23 03:52:11;;;;;;;;;;;17.20;66.30;;;;;;5044831;28;1018;-71
2023/03/23 03:54:37;;;;;;;;;;;17.20;66.30;;;;;;5038658;28;1529;-70
2023/03/23 03:57:02;;;;;;;;;;;17.20;66.30;;;;;;5038630;28;1654;-71
2023/03/23 03:59:30;;;;;;;;;;;17.20;66.30;;;;;;5038969;28;805;-70
2023/03/23 04:01:55;;;;;;;;;;;17.20;66.30;;;;;;5039388;28;1906;-70
2023/03/23 04:04:21;;;;;;;;;;;17.20;66.30;;;;;;5033915;28;1358;-71
2023/03/23 04:06:48;;;;;;;;;;;17.20;66.30;;;;;;5034205;28;899;-70
2023/03/23 04:09:14;;;;;;;;;;;17.20;66.30;;;;;;5035536;28;884;-70
2023/03/23 04:11:39;;;;;;;;;;;17.20;66.30;;;;;;5037422;28;828;-71
2023/03/23 04:14:05;;;;;;;;;;;17.20;66.30;;;;;;5040900;28;1281;-70
2023/03/23 04:16:34;;;;;;;;;;;17.20;66.40;;;;;;5037765;28;833;-70
2023/03/23 04:19:00;;;;;;;;;;;17.20;66.40;;;;;;5041582;28;915;-71
2023/03/23 04:21:28;;;;;;;;;;;17.20;66.30;;;;;;5036754;28;2029;-70
2023/03/23 04:23:54;;;;;;;;;;;17.20;66.40;;;;;;5037278;28;1259;-70
2023/03/23 04:26:20;;;;;;;;;;;17.20;66.40;;;;;;5034540;28;919;-71
2023/03/23 04:28:45;;;;;;;;;;;17.20;66.40;;;;;;5039492;28;986;-70
2023/03/23 04:31:12;;;;;;;;;;;17.20;66.40;;;;;;5037686;28;894;-70
2023/03/23 04:33:40;;;;;;;;;;;17.20;66.40;;;;;;5037924;28;1339;-70
2023/03/23 04:36:06;;;;;;;;;;;17.20;66.40;;;;;;5022724;28;1210;-70
2023/03/23 04:38:33;;;;;;;;;;;17.20;66.40;;;;;;5039251;28;951;-70
2023/03/23 04:41:01;;;;;;;;;;;17.20;66.40;;;;;;5040389;28;1905;-70
2023/03/23 04:43:27;;;;;;;;;;;17.20;66.40;;;;;;5035829;28;1647;-71
2023/03/23 04:45:56;;;;;;;;;;;17.20;67.20;;;;;;5043448;28;852;-71
2023/03/23 04:48:25;;;;;;;;;;;17.20;66.40;;;;;;5044611;28;943;-71
2023/03/23 04:50:51;;;;;;;;;;;17.10;66.30;;;;;;5037540;28;944;-70
2023/03/23 04:53:17;;;;;;;;;;;17.20;66.40;;;;;;5036827;28;1272;-71
2023/03/23 04:55:43;;;;;;;;;;;17.20;66.40;;;;;;5037696;28;878;-71
2023/03/23 04:58:08;;;;;;;;;;;17.10;66.30;;;;;;5041038;28;1066;-71
2023/03/23 05:00:34;;;;;;;;;;;17.20;66.40;;;;;;5041632;28;1894;-70
2023/03/23 05:03:00;;;;;;;;;;;17.10;66.40;;;;;;5043145;28;975;-70
2023/03/23 05:05:27;;;;;;;;;;;17.20;66.40;;;;;;5043471;28;907;-71
2023/03/23 05:07:52;;;;;;;;;;;17.20;66.40;;;;;;5037860;28;875;-70
2023/03/23 05:10:18;;;;;;;;;;;17.20;66.40;;;;;;5039697;28;808;-70
2023/03/23 05:12:45;;;;;;;;;;;17.20;66.30;;;;;;5041993;28;1110;-70
2023/03/23 05:15:11;;;;;;;;;;;17.20;66.20;;;;;;5039143;28;1350;-71
2023/03/23 05:17:36;;;;;;;;;;;17.30;66.10;;;;;;5041708;28;855;-71
2023/03/23 05:20:04;;;;;;;;;;;17.30;66.10;;;;;;5042391;28;1014;-71
2023/03/23 05:22:32;;;;;;;;;;;17.30;65.90;;;;;;5029688;28;1911;-70
2023/03/23 05:24:58;;;;;;;;;;;17.30;65.80;;;;;;5038656;28;1246;-70
2023/03/23 05:27:23;;;;;;;;;;;17.40;65.80;;;;;;5042527;28;990;-70
2023/03/23 05:29:49;;;;;;;;;;;17.40;65.60;;;;;;5040075;28;901;-70
2023/03/23 05:32:15;;;;;;;;;;;17.50;65.60;;;;;;5042236;28;895;-70
2023/03/23 05:34:42;;;;;;;;;;;17.40;65.40;;;;;;5042337;28;1287;-70
2023/03/23 05:37:09;;;;;;;;;;;17.50;65.30;;;;;;5040931;28;1375;-70
2023/03/23 05:39:35;;;;;;;;;;;17.50;65.20;;;;;;5039498;28;872;-70
2023/03/23 05:42:00;;;;;;;;;;;17.50;65.10;;;;;;5040654;28;1903;-70
2023/03/23 05:44:26;;;;;;;;;;;17.50;65.00;;;;;;5039899;28;1371;-71
2023/03/23 05:46:52;;;;;;;;;;;17.60;65.10;;;;;;5039576;28;912;-70
2023/03/23 05:49:17;;;;;;;;;;;17.60;64.90;;;;;;5038029;28;848;-70
2023/03/23 05:51:43;;;;;;;;;;;17.60;64.90;;;;;;5037283;28;934;-70
2023/03/23 05:54:10;;;;;;;;;;;17.60;64.80;;;;;;5038406;28;1271;-70
2023/03/23 05:56:36;;;;;;;;;;;17.60;64.80;;;;;;5038024;28;832;-70
2023/03/23 05:59:03;;;;;;;;;;;17.60;64.70;;;;;;5038380;28;904;-71
2023/03/23 06:01:28;;;;;;;;;;;17.60;64.70;;;;;;5040309;28;1919;-71
2023/03/23 06:03:58;;;;;;;;;;;17.70;64.60;;;;;;5036553;28;1243;-71
2023/03/23 06:06:28;;;;;;;;;;;17.70;65.40;;;;;;5038539;28;1041;-71
2023/03/23 06:08:53;;;;;;;;;;;17.70;64.50;;;;;;5036030;28;871;-71
2023/03/23 06:11:19;;;;;;;;;;;17.70;64.50;;;;;;5038348;28;839;-71
2023/03/23 06:13:45;;;;;;;;;;;17.70;64.50;;;;;;5044602;28;1257;-71
2023/03/23 06:16:10;;;;;;;;;;;17.70;64.40;;;;;;5042673;28;1002;-71
2023/03/23 06:18:36;;;;;;;;;;;17.70;64.40;;;;;;5035817;28;919;-71
2023/03/23 06:21:02;;;;;;;;;;;17.70;64.30;;;;;;5040266;28;1914;-71
2023/03/23 06:23:28;;;;;;;;;;;17.70;64.30;;;;;;5041839;28;1409;-71
2023/03/23 06:25:54;;;;;;;;;;;17.70;64.30;;;;;;5037516;28;859;-70
2023/03/23 06:28:20;;;;;;;;;;;17.70;64.20;;;;;;5045335;28;880;-71
2023/03/23 06:30:45;;;;;;;;;;;17.80;64.20;;;;;;5036313;28;1030;-71
2023/03/23 06:33:11;;;;;;;;;;;17.80;64.20;;;;;;5040640;28;1295;-71
2023/03/23 06:35:36;;;;;;;;;;;17.80;64.20;;;;;;5039406;28;907;-71
2023/03/23 06:38:02;;;;;;;;;;;17.80;64.20;;;;;;5039666;28;1377;-71
2023/03/23 06:40:28;;;;;;;;;;;17.80;64.20;;;;;;5038941;28;1906;-71
2023/03/23 06:42:54;;;;;;;;;;;17.80;64.20;;;;;;5042322;28;868;-70
2023/03/23 06:45:20;;;;;;;;;;;17.80;64.20;;;;;;5040516;28;1483;-70
2023/03/23 06:47:48;;;;;;;;;;;17.80;64.20;;;;;;5038595;28;899;-70
2023/03/23 06:50:15;;;;;;;;;;;17.80;64.20;;;;;;5046982;28;931;-70
2023/03/23 06:52:40;;;;;;;;;;;17.80;64.20;;;;;;5041487;28;896;-70
2023/03/23 06:55:06;;;;;;;;;;;17.80;64.20;;;;;;5040251;28;1265;-71
2023/03/23 06:57:32;;;;;;;;;;;17.70;64.10;;;;;;5041141;28;805;-71
2023/03/23 06:59:57;;;;;;;;;;;17.80;64.20;;;;;;5038545;28;938;-71
2023/03/23 07:02:23;;;;;;;;;;;17.80;64.20;;;;;;5038827;28;1879;-71
2023/03/23 07:04:48;;;;;;;;;;;17.80;64.30;;;;;;5036924;28;1284;-71
2023/03/23 07:07:18;;;;;;;;;;;17.70;64.20;;;;;;5045559;28;1199;-71
2023/03/23 07:09:44;;;;;;;;;;;17.70;64.30;;;;;;5074007;28;856;-71
2023/03/23 07:12:09;;;;;;;;;;;17.70;64.30;;;;;;5038205;28;1053;-70
2023/03/23 07:14:35;;;;;;;;;;;17.70;64.30;;;;;;5035081;28;1215;-71
2023/03/23 07:17:01;;;;;;;;;;;17.70;64.30;;;;;;5036018;28;900;-71
2023/03/23 07:19:26;;;;;;;;;;;17.70;64.30;;;;;;5038335;28;1373;-71
2023/03/23 07:21:51;;;;;;;;;;;17.70;64.40;;;;;;5039359;28;2001;-71
2023/03/23 07:24:18;;;;;;;;;;;17.70;64.40;;;;;;5040020;28;1259;-70
2023/03/23 07:26:43;;;;;;;;;;;17.70;64.40;;;;;;5042448;28;856;-71
2023/03/23 07:29:09;;;;;;;;;;;17.70;64.40;;;;;;5037384;28;889;-71
2023/03/23 07:31:34;;;;;;;;;;;17.70;64.50;;;;;;5039666;28;841;-71
2023/03/23 07:34:00;;;;;;;;;;;17.70;64.50;;;;;;5035360;28;1935;-70
2023/03/23 07:36:26;;;;;;;;;;;17.70;64.50;;;;;;5037524;28;1936;-70
2023/03/23 07:38:52;;;;;;;;;;;17.70;64.50;;;;;;5037831;28;1255;-71
2023/03/23 07:41:19;;;;;;;;;;;17.70;64.50;;;;;;5044007;28;1965;-70
2023/03/23 07:43:45;;;;;;;;;;;17.70;64.50;;;;;;5046276;28;1864;-69
2023/03/23 07:46:11;;;;;;;;;;;17.70;64.70;;;;;;5036032;28;843;-69
2023/03/23 07:48:37;;;;;;;;;;;17.60;64.60;;;;;;5037833;28;929;-69
2023/03/23 07:51:03;;;;;;;;;;;17.70;64.60;;;;;;5037301;28;826;-70
2023/03/23 07:53:28;;;;;;;;;;;17.70;64.70;;;;;;5039178;28;1272;-68
2023/03/23 07:55:54;;;;;;;;;;;17.60;64.60;;;;;;5039405;28;1566;-68
2023/03/23 07:58:20;;;;;;;;;;;17.60;64.60;;;;;;5040292;28;891;-69
2023/03/23 08:00:46;;;;;;;;;;;17.60;64.70;;;;;;5038851;28;1942;-73
2023/03/23 08:03:12;;;;;;;;;;;17.60;64.70;;;;;;5035401;28;1260;-73
2023/03/23 08:05:37;;;;;;;;;;;17.60;64.70;;;;;;5036298;28;936;-73
2023/03/23 08:08:03;;;;;;;;;;;17.60;64.70;;;;;;5033228;28;1264;-73
2023/03/23 08:10:29;;;;;;;;;;;17.60;64.70;;;;;;5036524;28;824;-73
2023/03/23 08:12:55;;;;;;;;;;;17.60;64.70;;;;;;5037945;28;832;-73
2023/03/23 08:15:21;;;;;;;;;;;17.60;64.80;;;;;;5038507;28;1263;-73
2023/03/23 08:17:47;;;;;;;;;;;17.60;64.80;;;;;;5037116;28;907;-73
2023/03/23 08:20:13;;;;;;;;;;;17.60;64.80;;;;;;5036546;28;970;-73
2023/03/23 08:22:39;;;;;;;;;;;17.60;64.80;;;;;;5038502;28;1909;-73
2023/03/23 08:25:06;;;;;;;;;;;17.60;64.80;;;;;;5037320;28;1309;-73
2023/03/23 08:27:31;;;;;;;;;;;17.60;64.90;;;;;;5036750;28;1389;-73
2023/03/23 08:29:57;;;;;;;;;;;17.60;64.80;;;;;;5039291;28;839;-73
2023/03/23 08:32:23;;;;;;;;;;;17.60;64.80;;;;;;5048445;28;908;-73
2023/03/23 08:34:49;;;;;;;;;;;17.60;64.90;;;;;;5026595;28;1576;-73
2023/03/23 08:37:15;;;;;;;;;;;17.60;64.90;;;;;;5039603;28;1448;-73
2023/03/23 08:39:40;;;;;;;;;;;17.60;64.90;;;;;;5042551;28;1048;-72
2023/03/23 08:42:06;;;;;;;;;;;17.60;64.90;;;;;;5043138;28;1953;-73
2023/03/23 08:44:31;;;;;;;;;;;17.60;64.90;;;;;;5040878;28;1314;-73
2023/03/23 08:46:57;;;;;;;;;;;17.60;64.90;;;;;;5041654;28;1552;-73
2023/03/23 08:49:23;;;;;;;;;;;17.60;64.90;;;;;;5048529;28;899;-73
2023/03/23 08:51:48;;;;;;;;;;;17.60;65.00;;;;;;5039376;28;1233;-73
2023/03/23 08:54:14;;;;;;;;;;;17.60;65.00;;;;;;5042722;28;1245;-73
2023/03/23 08:56:39;;;;;;;;;;;17.60;65.00;;;;;;5047480;28;1006;-73
2023/03/23 08:59:04;;;;;;;;;;;17.60;65.00;;;;;;5042217;28;928;-73
2023/03/23 09:01:30;;;;;;;;;;;17.60;65.00;;;;;;5041187;28;1902;-73
2023/03/23 09:03:55;;;;;;;;;;;17.60;65.00;;;;;;5048963;28;1292;-73
2023/03/23 09:06:21;;;;;;;;;;;17.60;65.10;;;;;;5039061;28;1240;-73
2023/03/23 09:08:46;;;;;;;;;;;17.60;65.10;;;;;;5038597;28;1233;-73
2023/03/23 09:11:12;;;;;;;;;;;17.50;65.10;;;;;;5040070;28;915;-73
2023/03/23 09:13:38;;;;;;;;;;;17.60;65.10;;;;;;5041234;28;1229;-72
2023/03/23 09:16:04;;;;;;;;;;;17.50;65.10;;;;;;5040714;28;874;-72
2023/03/23 09:18:29;;;;;;;;;;;17.50;65.10;;;;;;5040785;28;856;-72
2023/03/23 09:20:55;;;;;;;;;;;17.60;65.20;;;;;;5039766;28;1910;-72
2023/03/23 09:23:20;;;;;;;;;;;17.50;65.10;;;;;;5041230;28;1264;-73
2023/03/23 09:25:46;;;;;;;;;;;17.50;65.10;;;;;;5038386;28;904;-72
2023/03/23 09:28:11;;;;;;;;;;;17.50;65.10;;;;;;5042127;28;1030;-73
2023/03/23 09:30:38;;;;;;;;;;;17.50;65.20;;;;;;5045599;28;943;-73
2023/03/23 09:33:04;;;;;;;;;;;17.50;65.20;;;;;;5040423;28;1358;-72
2023/03/23 09:35:31;;;;;;;;;;;17.50;65.20;;;;;;5039445;28;820;-73
2023/03/23 09:37:56;;;;;;;;;;;17.50;65.20;;;;;;5046048;28;998;-73
2023/03/23 09:40:23;;;;;;;;;;;17.50;65.20;;;;;;5040814;28;1022;-72
2023/03/23 09:43:05;;;;;;;;;;;17.50;65.20;;;;;;5037192;28;868;-73
2023/03/23 09:45:33;;;;;;;;;;;17.50;65.20;;;;;;5038334;28;1290;-71
2023/03/23 09:48:08;;;;;;;;;;;17.50;65.20;;;;;;5039645;28;911;-71
2023/03/23 09:50:34;;;;;;;;;;;17.50;65.20;;;;;;5056901;28;1539;-71
2023/03/23 09:53:01;;;;;;;;;;;17.50;65.20;;;;;;5037967;28;1050;-71
2023/03/23 09:55:28;;;;;;;;;;;17.50;65.20;;;;;;5040758;28;1311;-71
2023/03/23 09:58:02;;;;;;;;;;;17.50;65.20;;;;;;5039223;28;903;-71
2023/03/23 10:00:39;;;;;;;;;;;17.50;65.20;;;;;;5037946;28;1967;-73
2023/03/23 10:03:05;;;;;;;;;;;17.50;65.20;;;;;;5037839;28;1834;-72
2023/03/23 10:05:40;;;;;;;;;;;17.50;65.20;;;;;;5039081;28;1931;-73
2023/03/23 10:08:09;;;;;;;;;;;17.50;65.20;;;;;;5040701;28;1486;-73
2023/03/23 10:10:55;;;;;;;;;;;17.50;65.30;;;;;;5039418;28;848;-72
2023/03/23 10:13:35;;;;;;;;;;;17.60;65.40;;;;;;5038917;28;1315;-73
2023/03/23 10:16:02;;;;;;;;;;;17.50;65.30;;;;;;5042370;28;1329;-72
2023/03/23 10:18:31;;;;;;;;;;;17.50;65.30;;;;;;5042408;28;861;-72
2023/03/23 10:20:57;;;;;;;;;;;17.50;65.40;;;;;;5044384;28;1926;-72
2023/03/23 10:23:35;;;;;;;;;;;17.50;65.40;;;;;;5036760;28;1255;-73
2023/03/23 10:26:04;;;;;;;;;;;17.50;65.40;;;;;;5041322;28;820;-73
2023/03/23 10:28:46;;;;;;;;;;;17.50;65.40;;;;;;5040109;28;1042;-72
2023/03/23 10:31:13;;;;;;;;;;;17.50;65.40;;;;;;5040744;28;938;-73
2023/03/23 10:33:40;;;;;;;;;;;17.50;65.40;;;;;;5041146;28;1353;-72
2023/03/23 10:36:07;;;;;;;;;;;17.50;65.40;;;;;;5034729;28;820;-73
2023/03/23 10:38:35;;;;;;;;;;;17.50;65.40;;;;;;5042821;28;1367;-72
2023/03/23 10:41:06;;;;;;;;;;;17.50;65.50;;;;;;5037291;28;1910;-72
2023/03/23 10:43:32;;;;;;;;;;;17.50;65.50;;;;;;5039314;28;1429;-73
2023/03/23 10:46:01;;;;;;;;;;;17.50;65.50;;;;;;5037701;28;1006;-73
2023/03/23 10:48:32;;;;;;;;;;;17.50;65.50;;;;;;5040231;28;808;-73
2023/03/23 10:50:58;;;;;;;;;;;17.50;65.50;;;;;;5041182;28;891;-73
2023/03/23 10:53:32;;;;;;;;;;;17.50;65.50;;;;;;5039089;28;1287;-72
2023/03/23 10:55:58;;;;;;;;;;;17.50;65.50;;;;;;5040615;28;924;-72
2023/03/23 10:58:31;;;;;;;;;;;17.40;65.50;;;;;;5040498;28;843;-71
2023/03/23 11:00:57;;;;;;;;;;;17.40;65.50;;;;;;5043335;28;1959;-71
2023/03/23 11:03:26;;;;;;;;;;;17.40;65.50;;;;;;5042244;28;1262;-72
2023/03/23 11:05:57;;;;;;;;;;;17.40;65.60;;;;;;5039179;28;908;-72
2023/03/23 11:08:23;;;;;;;;;;;17.40;65.50;;;;;;5044838;28;900;-71
2023/03/23 11:10:56;;;;;;;;;;;17.40;65.50;;;;;;5022914;28;1184;-72
2023/03/23 11:13:22;;;;;;;;;;;17.50;65.60;;;;;;5037907;28;1357;-72
2023/03/23 11:15:48;;;;;;;;;;;17.40;65.60;;;;;;5042141;28;851;-72
2023/03/23 11:18:19;;;;;;;;;;;17.50;65.60;;;;;;5039527;28;982;-72
2023/03/23 11:20:48;;;;;;;;;;;17.40;65.60;;;;;;5040075;28;1959;-72
2023/03/23 11:23:22;;;;;;;;;;;17.50;65.70;;;;;;5040800;28;1255;-72
2023/03/23 11:26:11;;;;;;;;;;;17.40;65.70;;;;;;5037528;28;812;-72
2023/03/23 11:28:37;;;;;;;;;;;17.40;65.60;;;;;;5038825;28;1164;-71
2023/03/23 11:31:03;;;;;;;;;;;17.40;65.60;;;;;;5043930;28;1305;-71
2023/03/23 11:33:30;;;;;;;;;;;17.40;65.70;;;;;;5035836;28;1231;-72
2023/03/23 11:35:56;;;;;;;;;;;17.40;65.70;;;;;;5034546;28;796;-72
2023/03/23 11:38:21;;;;;;;;;;;17.40;65.70;;;;;;5039159;28;1108;-71
2023/03/23 11:40:48;;;;;;;;;;;17.40;65.70;;;;;;5034593;28;1890;-71
2023/03/23 11:43:14;;;;;;;;;;;17.40;65.70;;;;;;5035387;28;1361;-71
2023/03/23 11:45:45;;;;;;;;;;;17.40;65.70;;;;;;5038936;28;1460;-71
2023/03/23 11:48:11;;;;;;;;;;;17.40;65.70;;;;;;5040399;28;1136;-71
2023/03/23 11:50:57;;;;;;;;;;;17.40;65.70;;;;;;5037232;28;891;-71
2023/03/23 11:53:24;;;;;;;;;;;17.40;65.80;;;;;;5037548;28;1259;-71
2023/03/23 11:55:52;;;;;;;;;;;17.40;65.80;;;;;;5024234;28;1739;-71
2023/03/23 11:58:18;;;;;;;;;;;17.40;65.80;;;;;;5045889;28;910;-72
2023/03/23 12:00:47;;;;;;;;;;;17.40;65.80;;;;;;5037284;28;1903;-72
2023/03/23 12:03:26;;;;;;;;;;;17.40;65.80;;;;;;5039178;28;1269;-71
2023/03/23 12:06:10;;;;;;;;;;;17.40;65.80;;;;;;5048826;28;884;-72
2023/03/23 12:08:49;;;;;;;;;;;17.40;65.80;;;;;;5048107;28;848;-72
2023/03/23 12:11:19;;;;;;;;;;;17.40;65.90;;;;;;5038813;28;804;-72
2023/03/23 12:14:03;;;;;;;;;;;17.40;65.90;;;;;;5041790;28;1249;-72
2023/03/23 12:16:41;;;;;;;;;;;17.40;65.90;;;;;;5041807;28;918;-72
2023/03/23 12:19:10;;;;;;;;;;;17.40;65.90;;;;;;5046341;28;816;-73
2023/03/23 12:21:39;;;;;;;;;;;17.40;65.90;;;;;;5042433;28;1894;-73
2023/03/23 12:24:10;;;;;;;;;;;17.40;65.90;;;;;;5040669;28;1276;-73
2023/03/23 12:26:40;;;;;;;;;;;17.40;65.90;;;;;;5042735;28;908;-73
2023/03/23 12:29:14;;;;;;;;;;;17.40;65.90;;;;;;5044160;28;895;-72
2023/03/23 12:31:58;;;;;;;;;;;17.40;65.90;;;;;;5045794;28;850;-73
2023/03/23 12:34:42;;;;;;;;;;;17.40;66.70;;;;;;5040844;28;1253;-73
2023/03/23 12:37:20;;;;;;;;;;;17.40;65.90;;;;;;5058313;28;1473;-72
2023/03/23 12:39:50;;;;;;;;;;;17.40;66.00;;;;;;5044259;28;836;-73
2023/03/23 12:42:22;;;;;;;;;;;17.30;65.90;;;;;;5044539;28;1902;-73
2023/03/23 12:45:08;;;;;;;;;;;17.40;66.00;;;;;;5044909;28;1266;-73
2023/03/23 12:47:44;;;;;;;;;;;17.40;66.00;;;;;;5041200;28;836;-72
2023/03/23 12:50:25;;;;;;;;;;;17.30;65.90;;;;;;5043434;28;1254;-72
2023/03/23 12:52:54;;;;;;;;;;;17.40;66.00;;;;;;5046065;28;1411;-73
2023/03/23 12:55:26;;;;;;;;;;;17.40;66.00;;;;;;5041265;28;1503;-72
2023/03/23 12:57:57;;;;;;;;;;;17.30;65.90;;;;;;5040195;28;895;-73
2023/03/23 13:00:27;;;;;;;;;;;17.40;66.00;;;;;;5042088;28;879;-72
2023/03/23 13:02:58;;;;;;;;;;;17.30;65.90;;;;;;5039188;28;1958;-71
2023/03/23 13:05:24;;;;;;;;;;;17.30;66.00;;;;;;5042892;28;1338;-72
2023/03/23 13:08:08;;;;;;;;;;;17.30;66.00;;;;;;5041225;28;851;-72
2023/03/23 13:10:36;;;;;;;;;;;17.30;66.00;;;;;;5044271;28;871;-73
2023/03/23 13:13:01;;;;;;;;;;;17.30;66.00;;;;;;5039542;28;987;-73
2023/03/23 13:15:44;;;;;;;;;;;17.30;66.00;;;;;;5045814;28;1255;-72
2023/03/23 13:18:13;;;;;;;;;;;17.30;66.00;;;;;;5035623;28;1656;-73
2023/03/23 13:20:42;;;;;;;;;;;17.30;66.00;;;;;;5041221;28;1906;-71
2023/03/23 13:23:11;;;;;;;;;;;17.30;66.00;;;;;;5039565;28;1260;-73
2023/03/23 13:25:40;;;;;;;;;;;17.30;66.00;;;;;;5046967;28;1171;-71
2023/03/23 13:28:05;;;;;;;;;;;17.30;66.00;;;;;;5040442;28;909;-73
2023/03/23 13:30:31;;;;;;;;;;;17.30;66.00;;;;;;5042866;28;818;-72
2023/03/23 13:33:03;;;;;;;;;;;17.30;66.00;;;;;;5038679;28;1859;-71
2023/03/23 13:35:33;;;;;;;;;;;17.30;66.10;;;;;;5039038;28;1303;-73
2023/03/23 13:37:58;;;;;;;;;;;17.30;66.10;;;;;;5044439;28;1332;-74
2023/03/23 13:40:27;;;;;;;;;;;17.30;66.10;;;;;;5039587;28;879;-73
2023/03/23 13:42:56;;;;;;;;;;;17.30;66.10;;;;;;5041118;28;1946;-74
2023/03/23 13:45:29;;;;;;;;;;;17.30;66.10;;;;;;5036062;28;1329;-73
2023/03/23 13:48:12;;;;;;;;;;;17.30;66.10;;;;;;5040587;28;891;-75
2023/03/23 13:50:50;;;;;;;;;;;17.30;66.90;;;;;;5038466;28;922;-73
2023/03/23 13:53:21;;;;;;;;;;;17.30;66.10;;;;;;5040636;28;1300;-74
2023/03/23 13:55:50;;;;;;;;;;;17.30;66.10;;;;;;5044186;28;845;-75
2023/03/23 13:58:23;;;;;;;;;;;17.30;66.10;;;;;;5048636;28;840;-74
2023/03/23 14:00:50;;;;;;;;;;;17.30;66.10;;;;;;5043942;28;1953;-74
2023/03/23 14:03:15;;;;;;;;;;;17.30;66.10;;;;;;5039140;28;1264;-74
2023/03/23 14:05:41;;;;;;;;;;;17.30;66.20;;;;;;5046421;28;1183;-74
2023/03/23 14:08:13;;;;;;;;;;;17.30;66.20;;;;;;5038339;28;778;-74
2023/03/23 14:10:38;;;;;;;;;;;17.30;66.20;;;;;;5040639;28;1032;-74
2023/03/23 14:13:05;;;;;;;;;;;17.30;66.20;;;;;;5043072;28;1525;-74
2023/03/23 14:15:31;;;;;;;;;;;17.30;66.20;;;;;;5039192;28;861;-74
2023/03/23 14:17:56;;;;;;;;;;;17.30;66.20;;;;;;5038333;28;872;-73
2023/03/23 14:20:34;;;;;;;;;;;17.30;66.20;;;;;;5027019;28;1423;-74
2023/03/23 14:23:00;;;;;;;;;;;17.30;66.20;;;;;;5039655;28;1076;-73
2023/03/23 14:25:30;;;;;;;;;;;17.30;66.20;;;;;;5037899;28;1379;-74
2023/03/23 14:27:56;;;;;;;;;;;17.30;66.20;;;;;;5045138;28;904;-74
2023/03/23 14:30:22;;;;;;;;;;;17.30;66.20;;;;;;5041229;28;919;-74
2023/03/23 14:32:49;;;;;;;;;;;17.30;66.20;;;;;;5039290;28;1236;-74
2023/03/23 14:35:17;;;;;;;;;;;17.30;66.20;;;;;;5038985;28;1379;-74
2023/03/23 14:37:43;;;;;;;;;;;17.30;66.30;;;;;;5045558;28;1457;-73
2023/03/23 14:40:11;;;;;;;;;;;17.30;66.20;;;;;;5039232;28;950;-72